createdAt,value
2022-12-05T00:01:49.534Z,4.90
2022-12-05T00:04:36.168Z,6.43
2022-12-05T00:07:22.660Z,5.37
2022-12-05T00:10:11.048Z,4.70
2022-12-05T00:12:57.446Z,4.73
2022-12-05T00:15:44.107Z,5.17
2022-12-05T00:18:30.361Z,4.27
2022-12-05T00:21:17.408Z,4.57
2022-12-05T00:24:04.572Z,5.03
2022-12-05T00:26:52.654Z,5.97
2022-12-05T00:29:39.203Z,5.27
2022-12-05T00:32:25.656Z,4.70
2022-12-05T00:35:12.096Z,4.77
2022-12-05T00:37:58.420Z,5.90
2022-12-05T00:40:44.822Z,4.20
2022-12-05T00:43:33.135Z,4.37
2022-12-05T00:46:20.449Z,5.63
2022-12-05T00:49:07.821Z,6.37
2022-12-05T00:51:54.179Z,6.57
2022-12-05T00:54:40.343Z,6.23
2022-12-05T00:57:26.346Z,5.67
2022-12-05T01:00:14.790Z,6.27
2022-12-05T01:03:01.146Z,4.57
2022-12-05T01:05:47.784Z,4.80
2022-12-05T01:08:34.855Z,4.60
2022-12-05T01:11:22.172Z,3.37
2022-12-05T01:14:08.615Z,3.50
2022-12-05T01:16:57.062Z,3.20
2022-12-05T01:19:43.327Z,3.63
2022-12-05T01:22:29.771Z,5.30
2022-12-05T01:25:15.921Z,4.87
2022-12-05T01:28:02.076Z,5.40
2022-12-05T01:30:49.250Z,5.37
2022-12-05T01:33:37.090Z,4.90
2022-12-05T01:36:23.925Z,5.30
2022-12-05T01:39:10.880Z,4.73
2022-12-05T01:41:57.020Z,4.27
2022-12-05T01:45:03.170Z,5.23
2022-12-05T01:47:49.515Z,3.47
2022-12-05T01:50:37.477Z,3.07
2022-12-05T01:53:24.243Z,3.00
2022-12-05T01:56:10.941Z,3.40
2022-12-05T01:58:57.391Z,2.60
2022-12-05T02:01:43.678Z,2.50
2022-12-05T02:04:30.016Z,2.70
2022-12-05T02:07:17.793Z,2.33
2022-12-05T02:10:04.855Z,2.10
2022-12-05T02:12:52.307Z,2.57
2022-12-05T02:15:40.943Z,2.30
2022-12-05T02:18:35.481Z,2.40
2022-12-05T02:21:36.224Z,2.07
2022-12-05T02:24:46.413Z,2.27
2022-12-05T02:27:45.652Z,1.90
2022-12-05T02:33:32.091Z,2.30
2022-12-05T02:36:23.303Z,2.87
2022-12-05T02:39:16.529Z,2.37
2022-12-05T02:42:06.245Z,1.77
2022-12-05T02:44:55.517Z,1.97
2022-12-05T02:47:45.399Z,1.90
2022-12-05T02:50:33.538Z,1.97
2022-12-05T02:53:20.987Z,2.83
2022-12-05T02:56:08.359Z,4.10
2022-12-05T02:58:56.271Z,3.20
2022-12-05T03:01:45.187Z,3.03
2022-12-05T03:04:33.429Z,2.50
2022-12-05T03:07:21.525Z,2.07
2022-12-05T03:10:09.125Z,2.30
2022-12-05T03:12:57.320Z,1.63
2022-12-05T03:15:46.703Z,1.80
2022-12-05T03:18:37.816Z,2.13
2022-12-05T03:21:28.532Z,2.83
2022-12-05T03:24:15.663Z,3.20
2022-12-05T03:29:57.633Z,3.07
2022-12-05T03:32:45.741Z,2.37
2022-12-05T03:35:37.053Z,2.03
2022-12-05T03:38:26.748Z,2.50
2022-12-05T03:41:16.374Z,2.50
2022-12-05T03:44:06.543Z,2.00
2022-12-05T03:46:54.863Z,1.77
2022-12-05T03:49:42.865Z,1.90
2022-12-05T03:52:38.035Z,1.57
2022-12-05T03:55:41.391Z,1.80
2022-12-05T03:58:29.758Z,2.23
2022-12-05T04:01:17.684Z,2.10
2022-12-05T04:04:06.210Z,1.77
2022-12-05T04:06:54.688Z,1.30
2022-12-05T04:09:42.462Z,2.03
2022-12-05T04:12:31.256Z,1.63
2022-12-05T04:15:19.570Z,1.63
2022-12-05T04:18:05.346Z,1.87
2022-12-05T04:21:14.994Z,2.30
2022-12-05T04:24:19.085Z,2.70
2022-12-05T04:27:21.173Z,2.50
2022-12-05T04:30:10.102Z,1.53
2022-12-05T04:33:01.250Z,2.27
2022-12-05T04:35:51.262Z,2.40
2022-12-05T04:38:40.528Z,1.67
2022-12-05T04:44:21.214Z,1.93
2022-12-05T04:47:09.832Z,2.17
2022-12-05T04:49:56.959Z,1.90
2022-12-05T04:52:45.176Z,1.37
2022-12-05T04:55:32.839Z,1.30
2022-12-05T05:04:04.485Z,2.20
2022-12-05T05:06:51.115Z,1.83
2022-12-05T05:09:37.350Z,2.10
2022-12-05T05:12:23.472Z,2.00
2022-12-05T05:15:10.342Z,1.90
2022-12-05T05:17:56.962Z,1.83
2022-12-05T05:20:44.464Z,1.57
2022-12-05T05:23:30.846Z,1.77
2022-12-05T05:31:52.630Z,2.13
2022-12-05T05:34:38.792Z,1.63
2022-12-05T05:37:26.906Z,1.97
2022-12-05T05:40:15.343Z,1.90
2022-12-05T05:43:01.677Z,1.53
2022-12-05T05:45:47.910Z,1.60
2022-12-05T05:54:11.868Z,1.93
2022-12-05T05:56:57.938Z,2.20
2022-12-05T05:59:44.295Z,1.50
2022-12-05T06:02:32.986Z,1.60
2022-12-05T06:05:19.308Z,1.57
2022-12-05T06:08:05.811Z,1.57
2022-12-05T06:10:53.942Z,2.00
2022-12-05T06:13:40.721Z,1.80
2022-12-05T06:16:27.025Z,1.60
2022-12-05T06:19:13.787Z,2.03
2022-12-05T06:22:00.510Z,1.80
2022-12-05T06:30:21.835Z,2.50
2022-12-05T06:33:08.335Z,2.30
2022-12-05T06:36:02.761Z,2.37
2022-12-05T06:38:49.263Z,3.87
2022-12-05T06:41:35.817Z,3.10
2022-12-05T06:44:26.889Z,2.40
2022-12-05T06:50:00.530Z,2.17
2022-12-05T06:52:46.798Z,3.53
2022-12-05T06:55:32.952Z,2.30
2022-12-05T06:58:19.148Z,2.53
2022-12-05T07:01:24.295Z,2.63
2022-12-05T07:04:15.700Z,2.13
2022-12-05T07:07:02.906Z,3.13
2022-12-05T07:09:53.890Z,2.20
2022-12-05T07:12:39.973Z,1.90
2022-12-05T07:15:26.556Z,2.60
2022-12-05T07:18:14.207Z,1.63
2022-12-05T07:21:11.599Z,2.53
2022-12-05T07:23:59.003Z,2.97
2022-12-05T07:26:45.573Z,2.27
2022-12-05T07:29:31.917Z,2.00
2022-12-05T07:32:18.225Z,2.20
2022-12-05T07:35:06.466Z,1.90
2022-12-05T07:37:52.963Z,4.30
2022-12-05T07:40:39.362Z,2.50
2022-12-05T07:43:25.841Z,2.50
2022-12-05T07:48:59.308Z,3.20
2022-12-05T07:51:46.849Z,2.93
2022-12-05T07:57:21.035Z,1.77
2022-12-05T08:05:42.106Z,2.70
2022-12-05T08:11:17.434Z,2.30
2022-12-05T08:14:04.139Z,2.97
2022-12-05T08:16:50.325Z,3.33
2022-12-05T08:19:36.721Z,2.63
2022-12-05T08:22:22.875Z,2.53
2022-12-05T08:25:11.145Z,2.00
2022-12-05T08:41:57.515Z,2.13
2022-12-05T08:44:44.105Z,2.80
2022-12-05T08:47:32.349Z,3.00
2022-12-05T08:50:18.920Z,2.33
2022-12-05T08:53:05.276Z,2.83
2022-12-05T08:58:39.725Z,2.07
2022-12-05T09:01:30.658Z,2.30
2022-12-05T09:04:17.489Z,3.13
2022-12-05T09:07:03.835Z,2.30
2022-12-05T09:15:25.487Z,2.90
2022-12-05T09:18:12.746Z,2.87
2022-12-05T09:20:59.271Z,3.20
2022-12-05T09:23:46.467Z,4.07
2022-12-05T09:32:08.447Z,3.47
2022-12-05T09:43:22.052Z,3.30
2022-12-05T09:51:57.551Z,4.43
2022-12-05T09:54:43.968Z,3.80
2022-12-05T09:57:34.165Z,3.10
2022-12-05T10:03:23.625Z,2.97
2022-12-05T10:12:06.724Z,2.80
2022-12-05T10:14:57.867Z,2.40
2022-12-05T10:29:34.661Z,4.53
2022-12-05T10:32:23.531Z,15.57
2022-12-05T10:35:16.045Z,5.03
2022-12-05T10:40:59.340Z,4.17
2022-12-05T10:43:46.720Z,3.90
2022-12-05T10:46:33.089Z,3.67
2022-12-05T10:49:19.879Z,3.57
2022-12-05T11:06:24.982Z,2.67
2022-12-05T11:17:52.294Z,3.63
2022-12-05T11:20:39.661Z,3.73
2022-12-05T11:26:18.325Z,5.87
2022-12-05T11:58:32.723Z,3.63
2022-12-05T12:01:24.541Z,6.37
2022-12-05T12:04:19.114Z,8.73
2022-12-05T12:07:14.161Z,6.67
2022-12-05T12:10:10.014Z,5.17
2022-12-05T12:19:11.094Z,4.70
2022-12-05T12:25:01.466Z,3.27
2022-12-05T12:27:53.826Z,4.33
2022-12-05T12:30:47.244Z,4.20
2022-12-05T12:33:35.818Z,4.47
2022-12-05T12:36:26.107Z,5.87
2022-12-05T12:39:19.391Z,6.07
2022-12-05T12:51:44.874Z,5.17
2022-12-05T12:55:02.749Z,6.37
2022-12-05T12:57:56.160Z,5.70
2022-12-05T13:00:51.123Z,5.63
2022-12-05T13:03:40.849Z,6.33
2022-12-05T13:06:29.846Z,5.67
2022-12-05T13:09:19.842Z,4.33
2022-12-05T13:12:09.142Z,4.77
2022-12-05T13:15:00.228Z,6.77
2022-12-05T13:37:54.692Z,4.50
2022-12-05T13:49:45.400Z,5.10
2022-12-05T13:52:33.235Z,5.67
2022-12-05T13:55:24.191Z,5.73
2022-12-05T13:58:27.487Z,4.87
2022-12-05T14:04:50.734Z,4.50
2022-12-05T14:14:05.063Z,3.83
2022-12-05T14:16:53.356Z,5.17
2022-12-05T14:22:59.086Z,5.03
2022-12-05T15:04:18.504Z,5.47
2022-12-05T15:09:58.727Z,7.20
2022-12-05T15:12:47.715Z,6.83
2022-12-05T15:15:37.324Z,6.97
2022-12-05T15:18:26.328Z,5.83
2022-12-05T15:44:06.208Z,17.40
2022-12-05T15:49:40.889Z,30.63
2022-12-05T15:52:30.770Z,34.00
2022-12-05T16:01:13.322Z,12.53
2022-12-05T16:04:01.337Z,35.13
2022-12-05T16:06:49.516Z,14.17
2022-12-05T16:09:39.585Z,8.90
2022-12-05T16:12:32.170Z,5.63
2022-12-05T16:15:21.261Z,8.23
2022-12-05T16:18:07.751Z,7.10
2022-12-05T16:20:54.319Z,6.63
2022-12-05T16:23:40.558Z,6.47
2022-12-05T16:26:27.039Z,7.90
2022-12-05T16:29:28.419Z,6.23
2022-12-05T16:32:19.080Z,7.67
2022-12-05T16:35:05.870Z,6.33
2022-12-05T16:37:52.571Z,6.57
2022-12-05T16:40:39.438Z,7.70
2022-12-05T16:43:27.207Z,6.47
2022-12-05T16:46:32.032Z,7.90
2022-12-05T16:49:32.633Z,6.07
2022-12-05T16:52:18.954Z,6.33
2022-12-05T17:17:38.585Z,39.87
2022-12-05T17:23:14.513Z,13.93
2022-12-05T17:26:01.357Z,34.13
2022-12-05T17:28:47.761Z,11.47
2022-12-05T17:31:34.297Z,16.20
2022-12-05T17:37:07.973Z,19.60
2022-12-05T17:39:56.434Z,14.27
2022-12-05T17:42:43.285Z,8.67
2022-12-05T17:45:30.915Z,42.77
2022-12-05T17:48:17.351Z,21.70
2022-12-05T17:51:06.673Z,27.83
2022-12-05T17:53:54.601Z,7.13
2022-12-05T17:56:42.350Z,9.40
2022-12-05T17:59:31.060Z,6.73
2022-12-05T18:02:17.560Z,9.27
2022-12-05T18:07:51.485Z,11.60
2022-12-05T18:10:37.802Z,9.30
2022-12-05T18:13:25.571Z,7.80
2022-12-05T18:16:14.930Z,5.73
2022-12-05T18:19:04.208Z,7.10
2022-12-05T18:21:51.099Z,7.70
2022-12-05T18:24:37.632Z,6.73
2022-12-05T18:27:26.323Z,7.57
2022-12-05T18:30:14.692Z,8.40
2022-12-05T18:33:01.309Z,8.03
2022-12-05T18:35:48.019Z,7.60
2022-12-05T18:38:34.564Z,10.37
2022-12-05T18:41:20.793Z,8.23
2022-12-05T18:44:10.562Z,6.97
2022-12-05T18:46:58.963Z,8.00
2022-12-05T18:49:45.374Z,5.73
2022-12-05T18:52:31.824Z,5.50
2022-12-05T18:55:26.964Z,6.03
2022-12-05T18:58:24.951Z,6.40
2022-12-05T19:01:12.070Z,6.60
2022-12-05T19:04:01.123Z,5.57
2022-12-05T19:06:49.630Z,6.40
2022-12-05T19:09:36.034Z,4.73
2022-12-05T19:12:22.135Z,5.87
2022-12-05T19:15:09.791Z,6.27
2022-12-05T19:17:56.289Z,4.73
2022-12-05T19:20:52.349Z,6.27
2022-12-05T19:23:39.557Z,6.87
2022-12-05T19:26:26.223Z,6.87
2022-12-05T19:29:12.751Z,6.13
2022-12-05T19:31:59.224Z,5.70
2022-12-05T19:34:46.519Z,5.10
2022-12-05T19:37:34.393Z,8.80
2022-12-05T19:40:20.470Z,13.77
2022-12-05T19:43:07.278Z,11.40
2022-12-05T19:45:53.415Z,13.13
2022-12-05T19:48:40.312Z,8.40
2022-12-05T19:51:26.935Z,7.30
2022-12-05T19:54:17.719Z,6.33
2022-12-05T19:57:04.484Z,5.50
2022-12-05T19:59:50.605Z,9.17
2022-12-05T20:02:40.146Z,34.80
2022-12-05T20:05:28.685Z,23.10
2022-12-05T20:08:15.271Z,12.30
2022-12-05T20:11:05.825Z,11.07
2022-12-05T20:13:52.297Z,9.73
2022-12-05T20:16:38.953Z,13.10
2022-12-05T20:19:25.606Z,4.07
2022-12-05T20:22:12.052Z,4.13
2022-12-05T20:24:58.518Z,11.37
2022-12-05T20:27:46.798Z,8.40
2022-12-05T20:30:32.923Z,17.53
2022-12-05T20:33:19.648Z,12.97
2022-12-05T20:36:07.324Z,15.00
2022-12-05T20:38:56.178Z,15.13
2022-12-05T20:41:44.790Z,10.10
2022-12-05T20:44:36.052Z,6.30
2022-12-05T20:47:22.466Z,5.17
2022-12-05T20:50:09.361Z,6.93
2022-12-05T20:52:55.471Z,5.80
2022-12-05T20:55:42.095Z,4.60
2022-12-05T20:58:28.115Z,4.63
2022-12-05T21:01:17.504Z,4.93
2022-12-05T21:04:05.832Z,4.37
2022-12-05T21:06:53.904Z,4.43
2022-12-05T21:09:40.537Z,4.37
2022-12-05T21:12:26.868Z,4.23
2022-12-05T21:15:13.053Z,4.37
2022-12-05T21:18:00.633Z,2.97
2022-12-05T21:20:56.147Z,5.03
2022-12-05T21:23:42.958Z,4.13
2022-12-05T21:26:30.718Z,4.40
2022-12-05T21:29:17.531Z,4.50
2022-12-05T21:32:03.583Z,4.30
2022-12-05T21:34:51.272Z,4.07
2022-12-05T21:37:38.041Z,3.83
2022-12-05T21:40:24.402Z,4.57
2022-12-05T21:43:10.723Z,3.47
2022-12-05T21:45:57.537Z,3.73
2022-12-05T21:48:44.204Z,4.23
2022-12-05T21:51:31.987Z,4.27
2022-12-05T21:54:18.526Z,3.33
2022-12-05T21:57:04.895Z,4.90
2022-12-05T21:59:51.072Z,3.43
2022-12-05T22:02:37.846Z,4.77
2022-12-05T22:05:24.333Z,4.27
2022-12-05T22:08:12.160Z,3.80
2022-12-05T22:11:04.219Z,5.47
2022-12-05T22:13:50.578Z,3.80
2022-12-05T22:16:37.021Z,3.57
2022-12-05T22:19:23.339Z,6.43
2022-12-05T22:22:10.695Z,5.97
2022-12-05T22:24:58.385Z,6.83
2022-12-05T22:27:44.824Z,3.73
2022-12-05T22:30:30.966Z,5.20
2022-12-05T22:33:17.386Z,4.27
2022-12-05T22:36:04.574Z,3.60
2022-12-05T22:38:51.050Z,4.67
2022-12-05T22:41:38.645Z,3.20
2022-12-05T22:44:26.091Z,3.60
2022-12-05T22:47:12.360Z,3.77
2022-12-05T22:49:58.801Z,3.10
2022-12-05T22:52:45.449Z,3.57
2022-12-05T22:55:32.462Z,4.17
2022-12-05T22:58:20.455Z,4.27
2022-12-05T23:01:10.743Z,4.17
2022-12-05T23:03:57.641Z,4.00
2022-12-05T23:06:44.339Z,3.70
2022-12-05T23:09:30.740Z,3.00
2022-12-05T23:12:16.906Z,3.50
2022-12-05T23:15:04.894Z,4.10
2022-12-05T23:17:51.262Z,3.67
2022-12-05T23:20:37.616Z,4.30
2022-12-05T23:23:23.956Z,3.97
2022-12-05T23:26:11.235Z,3.10
2022-12-05T23:28:57.720Z,3.67
2022-12-05T23:31:45.627Z,4.50
2022-12-05T23:34:32.005Z,2.97
2022-12-05T23:37:18.320Z,4.20
2022-12-05T23:40:05.027Z,3.90
2022-12-05T23:42:51.623Z,3.07
2022-12-05T23:45:37.984Z,3.80
2022-12-05T23:48:25.823Z,3.43
2022-12-05T23:51:13.103Z,3.57
2022-12-05T23:54:00.345Z,3.93
2022-12-05T23:56:46.796Z,3.70
2022-12-05T23:59:33.185Z,3.70
